sensor_id;sensor_type;location;lat;lon;timestamp;temperature;humidity
18041;DHT22;9145;48.588;9.250;2024-02-28T00:02:21;8.50;99.90
18041;DHT22;9145;48.588;9.250;2024-02-28T00:04:48;8.50;99.90
18041;DHT22;9145;48.588;9.250;2024-02-28T00:07:15;8.50;99.90
18041;DHT22;9145;48.588;9.250;2024-02-28T00:09:43;8.40;99.90
18041;DHT22;9145;48.588;9.250;2024-02-28T00:12:10;8.40;99.90
18041;DHT22;9145;48.588;9.250;2024-02-28T00:14:37;8.40;99.90
18041;DHT22;9145;48.588;9.250;2024-02-28T00:17:04;8.40;99.90
18041;DHT22;9145;48.588;9.250;2024-02-28T00:19:32;8.50;99.90
18041;DHT22;9145;48.588;9.250;2024-02-28T00:21:59;8.40;99.90
18041;DHT22;9145;48.588;9.250;2024-02-28T00:24:26;8.40;99.90
18041;DHT22;9145;48.588;9.250;2024-02-28T00:26:53;8.30;99.90
18041;DHT22;9145;48.588;9.250;2024-02-28T00:29:20;8.30;99.90
18041;DHT22;9145;48.588;9.250;2024-02-28T00:31:47;8.30;99.90
18041;DHT22;9145;48.588;9.250;2024-02-28T00:34:14;8.30;99.90
18041;DHT22;9145;48.588;9.250;2024-02-28T00:36:42;8.30;99.90
18041;DHT22;9145;48.588;9.250;2024-02-28T00:39:10;8.20;99.90
18041;DHT22;9145;48.588;9.250;2024-02-28T00:41:37;8.30;99.90
18041;DHT22;9145;48.588;9.250;2024-02-28T00:44:04;8.30;99.90
18041;DHT22;9145;48.588;9.250;2024-02-28T00:46:31;8.30;99.90
18041;DHT22;9145;48.588;9.250;2024-02-28T00:48:58;8.30;99.90
18041;DHT22;9145;48.588;9.250;2024-02-28T00:51:24;8.20;99.90
18041;DHT22;9145;48.588;9.250;2024-02-28T00:53:52;8.30;99.90
18041;DHT22;9145;48.588;9.250;2024-02-28T00:56:19;8.30;99.90
18041;DHT22;9145;48.588;9.250;2024-02-28T00:58:46;8.30;99.90
18041;DHT22;9145;48.588;9.250;2024-02-28T01:01:13;8.30;99.90
18041;DHT22;9145;48.588;9.250;2024-02-28T01:03:40;8.30;99.90
18041;DHT22;9145;48.588;9.250;2024-02-28T01:06:07;8.30;99.90
18041;DHT22;9145;48.588;9.250;2024-02-28T01:08:33;8.20;99.90
18041;DHT22;9145;48.588;9.250;2024-02-28T01:11:02;8.20;99.90
18041;DHT22;9145;48.588;9.250;2024-02-28T01:13:29;8.30;99.90
18041;DHT22;9145;48.588;9.250;2024-02-28T01:15:56;8.30;99.90
18041;DHT22;9145;48.588;9.250;2024-02-28T01:18:24;8.30;99.90
18041;DHT22;9145;48.588;9.250;2024-02-28T01:20:51;8.20;99.90
18041;DHT22;9145;48.588;9.250;2024-02-28T01:23:19;8.20;99.90
18041;DHT22;9145;48.588;9.250;2024-02-28T01:25:46;8.20;99.90
18041;DHT22;9145;48.588;9.250;2024-02-28T01:28:14;8.20;99.90
18041;DHT22;9145;48.588;9.250;2024-02-28T01:30:41;8.30;99.90
18041;DHT22;9145;48.588;9.250;2024-02-28T01:33:08;8.30;99.90
18041;DHT22;9145;48.588;9.250;2024-02-28T01:35:35;8.30;99.90
18041;DHT22;9145;48.588;9.250;2024-02-28T01:38:02;8.30;99.90
18041;DHT22;9145;48.588;9.250;2024-02-28T01:40:28;8.30;99.90
18041;DHT22;9145;48.588;9.250;2024-02-28T01:43:01;8.30;99.90
18041;DHT22;9145;48.588;9.250;2024-02-28T01:45:30;8.30;99.90
18041;DHT22;9145;48.588;9.250;2024-02-28T01:47:56;8.30;99.90
18041;DHT22;9145;48.588;9.250;2024-02-28T01:50:23;8.20;99.90
18041;DHT22;9145;48.588;9.250;2024-02-28T01:52:50;8.20;99.90
18041;DHT22;9145;48.588;9.250;2024-02-28T01:55:17;8.20;99.90
18041;DHT22;9145;48.588;9.250;2024-02-28T01:57:44;8.20;99.90
18041;DHT22;9145;48.588;9.250;2024-02-28T02:00:12;8.20;99.90
18041;DHT22;9145;48.588;9.250;2024-02-28T02:02:41;8.30;99.90
18041;DHT22;9145;48.588;9.250;2024-02-28T02:05:09;8.30;99.90
18041;DHT22;9145;48.588;9.250;2024-02-28T02:07:36;8.30;99.90
18041;DHT22;9145;48.588;9.250;2024-02-28T02:10:02;8.30;99.90
18041;DHT22;9145;48.588;9.250;2024-02-28T02:12:33;8.30;99.90
18041;DHT22;9145;48.588;9.250;2024-02-28T02:15:00;8.30;99.90
18041;DHT22;9145;48.588;9.250;2024-02-28T02:17:27;8.20;99.90
18041;DHT22;9145;48.588;9.250;2024-02-28T02:19:55;8.20;99.90
18041;DHT22;9145;48.588;9.250;2024-02-28T02:22:23;8.20;99.90
18041;DHT22;9145;48.588;9.250;2024-02-28T02:24:54;8.30;99.90
18041;DHT22;9145;48.588;9.250;2024-02-28T02:27:23;8.20;99.90
18041;DHT22;9145;48.588;9.250;2024-02-28T02:29:50;8.30;99.90
18041;DHT22;9145;48.588;9.250;2024-02-28T02:32:17;8.30;99.90
18041;DHT22;9145;48.588;9.250;2024-02-28T02:34:44;8.30;99.90
18041;DHT22;9145;48.588;9.250;2024-02-28T02:37:11;8.30;99.90
18041;DHT22;9145;48.588;9.250;2024-02-28T02:39:38;8.40;99.90
18041;DHT22;9145;48.588;9.250;2024-02-28T02:42:06;8.40;99.90
18041;DHT22;9145;48.588;9.250;2024-02-28T02:44:34;8.30;99.90
18041;DHT22;9145;48.588;9.250;2024-02-28T02:47:01;8.30;99.90
18041;DHT22;9145;48.588;9.250;2024-02-28T02:49:27;8.30;99.90
18041;DHT22;9145;48.588;9.250;2024-02-28T02:51:54;8.20;99.90
18041;DHT22;9145;48.588;9.250;2024-02-28T02:54:21;8.20;99.90
18041;DHT22;9145;48.588;9.250;2024-02-28T02:56:48;8.10;99.90
18041;DHT22;9145;48.588;9.250;2024-02-28T02:59:16;8.00;99.90
18041;DHT22;9145;48.588;9.250;2024-02-28T03:01:45;8.00;99.90
18041;DHT22;9145;48.588;9.250;2024-02-28T03:04:12;7.90;99.90
18041;DHT22;9145;48.588;9.250;2024-02-28T03:06:39;7.90;99.90
18041;DHT22;9145;48.588;9.250;2024-02-28T03:09:06;7.90;99.90
18041;DHT22;9145;48.588;9.250;2024-02-28T03:11:33;7.90;99.90
18041;DHT22;9145;48.588;9.250;2024-02-28T03:14:00;7.90;99.90
18041;DHT22;9145;48.588;9.250;2024-02-28T03:16:29;7.80;99.90
18041;DHT22;9145;48.588;9.250;2024-02-28T03:18:56;7.90;99.90
18041;DHT22;9145;48.588;9.250;2024-02-28T03:21:23;7.90;99.90
18041;DHT22;9145;48.588;9.250;2024-02-28T03:23:49;7.90;99.90
18041;DHT22;9145;48.588;9.250;2024-02-28T03:26:16;7.90;99.90
18041;DHT22;9145;48.588;9.250;2024-02-28T03:28:43;7.90;99.90
18041;DHT22;9145;48.588;9.250;2024-02-28T03:31:10;7.90;99.90
18041;DHT22;9145;48.588;9.250;2024-02-28T03:33:38;7.90;99.90
18041;DHT22;9145;48.588;9.250;2024-02-28T03:36:05;7.90;99.90
18041;DHT22;9145;48.588;9.250;2024-02-28T03:38:32;7.90;99.90
18041;DHT22;9145;48.588;9.250;2024-02-28T03:41:01;7.80;99.90
18041;DHT22;9145;48.588;9.250;2024-02-28T03:43:28;7.80;99.90
18041;DHT22;9145;48.588;9.250;2024-02-28T03:45:55;7.80;99.90
18041;DHT22;9145;48.588;9.250;2024-02-28T03:48:22;7.80;99.90
18041;DHT22;9145;48.588;9.250;2024-02-28T03:50:50;7.80;99.90
18041;DHT22;9145;48.588;9.250;2024-02-28T03:53:17;7.80;99.90
18041;DHT22;9145;48.588;9.250;2024-02-28T03:55:44;7.80;99.90
18041;DHT22;9145;48.588;9.250;2024-02-28T03:58:11;7.80;99.90
18041;DHT22;9145;48.588;9.250;2024-02-28T04:00:38;7.80;99.90
18041;DHT22;9145;48.588;9.250;2024-02-28T04:03:05;7.80;99.90
18041;DHT22;9145;48.588;9.250;2024-02-28T04:05:32;7.90;99.90
18041;DHT22;9145;48.588;9.250;2024-02-28T04:08:00;7.90;99.90
18041;DHT22;9145;48.588;9.250;2024-02-28T04:10:27;7.80;99.90
18041;DHT22;9145;48.588;9.250;2024-02-28T04:12:54;7.80;99.90
18041;DHT22;9145;48.588;9.250;2024-02-28T04:15:21;7.90;99.90
18041;DHT22;9145;48.588;9.250;2024-02-28T04:17:48;7.90;99.90
18041;DHT22;9145;48.588;9.250;2024-02-28T04:20:15;7.80;99.90
18041;DHT22;9145;48.588;9.250;2024-02-28T04:22:42;7.80;99.90
18041;DHT22;9145;48.588;9.250;2024-02-28T04:25:10;7.80;99.90
18041;DHT22;9145;48.588;9.250;2024-02-28T04:27:37;7.90;99.90
18041;DHT22;9145;48.588;9.250;2024-02-28T04:30:05;7.90;99.90
18041;DHT22;9145;48.588;9.250;2024-02-28T04:32:32;7.80;99.90
18041;DHT22;9145;48.588;9.250;2024-02-28T04:35:01;7.80;99.90
18041;DHT22;9145;48.588;9.250;2024-02-28T04:37:28;7.80;99.90
18041;DHT22;9145;48.588;9.250;2024-02-28T04:39:55;7.90;99.90
18041;DHT22;9145;48.588;9.250;2024-02-28T04:42:23;7.80;99.90
18041;DHT22;9145;48.588;9.250;2024-02-28T04:44:50;7.80;99.90
18041;DHT22;9145;48.588;9.250;2024-02-28T04:47:17;7.70;99.90
18041;DHT22;9145;48.588;9.250;2024-02-28T04:49:44;7.70;99.90
18041;DHT22;9145;48.588;9.250;2024-02-28T04:52:11;7.70;99.90
18041;DHT22;9145;48.588;9.250;2024-02-28T04:54:40;7.70;99.90
18041;DHT22;9145;48.588;9.250;2024-02-28T04:57:06;7.70;99.90
18041;DHT22;9145;48.588;9.250;2024-02-28T04:59:35;7.60;99.90
18041;DHT22;9145;48.588;9.250;2024-02-28T05:02:01;7.60;99.90
18041;DHT22;9145;48.588;9.250;2024-02-28T05:04:29;7.60;99.90
18041;DHT22;9145;48.588;9.250;2024-02-28T05:06:55;7.50;99.90
18041;DHT22;9145;48.588;9.250;2024-02-28T05:09:22;7.50;99.90
18041;DHT22;9145;48.588;9.250;2024-02-28T05:11:49;7.50;99.90
18041;DHT22;9145;48.588;9.250;2024-02-28T05:14:16;7.50;99.90
18041;DHT22;9145;48.588;9.250;2024-02-28T05:16:44;7.40;99.90
18041;DHT22;9145;48.588;9.250;2024-02-28T05:19:11;7.40;99.90
18041;DHT22;9145;48.588;9.250;2024-02-28T05:21:41;7.40;99.90
18041;DHT22;9145;48.588;9.250;2024-02-28T05:24:08;7.40;99.90
18041;DHT22;9145;48.588;9.250;2024-02-28T05:26:36;7.30;99.90
18041;DHT22;9145;48.588;9.250;2024-02-28T05:29:03;7.30;99.90
18041;DHT22;9145;48.588;9.250;2024-02-28T05:31:31;7.30;99.90
18041;DHT22;9145;48.588;9.250;2024-02-28T05:34:00;7.30;99.90
18041;DHT22;9145;48.588;9.250;2024-02-28T05:36:28;7.30;99.90
18041;DHT22;9145;48.588;9.250;2024-02-28T05:38:56;7.30;99.90
18041;DHT22;9145;48.588;9.250;2024-02-28T05:41:23;7.40;99.90
18041;DHT22;9145;48.588;9.250;2024-02-28T05:43:51;7.30;99.90
18041;DHT22;9145;48.588;9.250;2024-02-28T05:46:18;7.40;99.90
18041;DHT22;9145;48.588;9.250;2024-02-28T05:48:46;7.30;99.90
18041;DHT22;9145;48.588;9.250;2024-02-28T05:51:15;7.40;99.90
18041;DHT22;9145;48.588;9.250;2024-02-28T05:53:42;7.40;99.90
18041;DHT22;9145;48.588;9.250;2024-02-28T05:56:09;7.40;99.90
18041;DHT22;9145;48.588;9.250;2024-02-28T05:58:40;7.40;99.90
18041;DHT22;9145;48.588;9.250;2024-02-28T06:01:08;7.50;99.90
18041;DHT22;9145;48.588;9.250;2024-02-28T06:03:34;7.50;99.90
18041;DHT22;9145;48.588;9.250;2024-02-28T06:06:01;7.40;99.90
18041;DHT22;9145;48.588;9.250;2024-02-28T06:08:32;7.40;99.90
18041;DHT22;9145;48.588;9.250;2024-02-28T06:10:59;7.40;99.90
18041;DHT22;9145;48.588;9.250;2024-02-28T06:13:26;7.40;99.90
18041;DHT22;9145;48.588;9.250;2024-02-28T06:15:53;7.40;99.90
18041;DHT22;9145;48.588;9.250;2024-02-28T06:18:20;7.30;99.90
18041;DHT22;9145;48.588;9.250;2024-02-28T06:20:48;7.30;99.90
18041;DHT22;9145;48.588;9.250;2024-02-28T06:23:15;7.30;99.90
18041;DHT22;9145;48.588;9.250;2024-02-28T06:25:43;7.30;99.90
18041;DHT22;9145;48.588;9.250;2024-02-28T06:28:10;7.30;99.90
18041;DHT22;9145;48.588;9.250;2024-02-28T06:30:37;7.30;99.90
18041;DHT22;9145;48.588;9.250;2024-02-28T06:33:04;7.30;99.90
18041;DHT22;9145;48.588;9.250;2024-02-28T06:35:31;7.30;99.90
18041;DHT22;9145;48.588;9.250;2024-02-28T06:37:58;7.30;99.90
18041;DHT22;9145;48.588;9.250;2024-02-28T06:40:25;7.30;99.90
18041;DHT22;9145;48.588;9.250;2024-02-28T06:42:53;7.30;99.90
18041;DHT22;9145;48.588;9.250;2024-02-28T06:45:20;7.30;99.90
18041;DHT22;9145;48.588;9.250;2024-02-28T06:47:46;7.30;99.90
18041;DHT22;9145;48.588;9.250;2024-02-28T06:50:14;7.30;99.90
18041;DHT22;9145;48.588;9.250;2024-02-28T06:52:41;7.30;99.90
18041;DHT22;9145;48.588;9.250;2024-02-28T06:55:08;7.30;99.90
18041;DHT22;9145;48.588;9.250;2024-02-28T06:57:36;7.30;99.90
18041;DHT22;9145;48.588;9.250;2024-02-28T07:00:06;7.40;99.90
18041;DHT22;9145;48.588;9.250;2024-02-28T07:02:34;7.40;99.90
18041;DHT22;9145;48.588;9.250;2024-02-28T07:05:01;7.50;99.90
18041;DHT22;9145;48.588;9.250;2024-02-28T07:07:28;7.50;99.90
18041;DHT22;9145;48.588;9.250;2024-02-28T07:09:56;7.50;99.90
18041;DHT22;9145;48.588;9.250;2024-02-28T07:12:23;7.50;99.90
18041;DHT22;9145;48.588;9.250;2024-02-28T07:14:50;7.60;99.90
18041;DHT22;9145;48.588;9.250;2024-02-28T07:17:17;7.60;99.90
18041;DHT22;9145;48.588;9.250;2024-02-28T07:19:44;7.60;99.90
18041;DHT22;9145;48.588;9.250;2024-02-28T07:22:11;7.70;99.90
18041;DHT22;9145;48.588;9.250;2024-02-28T07:24:38;7.70;99.90
18041;DHT22;9145;48.588;9.250;2024-02-28T07:27:05;7.70;99.90
18041;DHT22;9145;48.588;9.250;2024-02-28T07:29:31;7.80;99.90
18041;DHT22;9145;48.588;9.250;2024-02-28T07:31:58;7.80;99.90
18041;DHT22;9145;48.588;9.250;2024-02-28T07:34:29;7.80;99.90
18041;DHT22;9145;48.588;9.250;2024-02-28T07:36:56;7.90;99.90
18041;DHT22;9145;48.588;9.250;2024-02-28T07:39:23;7.90;99.90
18041;DHT22;9145;48.588;9.250;2024-02-28T07:41:50;7.80;99.90
18041;DHT22;9145;48.588;9.250;2024-02-28T07:44:17;7.80;99.90
18041;DHT22;9145;48.588;9.250;2024-02-28T07:46:44;7.90;99.90
18041;DHT22;9145;48.588;9.250;2024-02-28T07:49:10;7.80;99.90
18041;DHT22;9145;48.588;9.250;2024-02-28T07:51:39;7.90;99.90
18041;DHT22;9145;48.588;9.250;2024-02-28T07:54:07;7.80;99.90
18041;DHT22;9145;48.588;9.250;2024-02-28T07:56:34;7.90;99.90
18041;DHT22;9145;48.588;9.250;2024-02-28T07:59:01;7.90;99.90
18041;DHT22;9145;48.588;9.250;2024-02-28T08:01:27;8.00;99.90
18041;DHT22;9145;48.588;9.250;2024-02-28T08:03:54;8.00;99.90
18041;DHT22;9145;48.588;9.250;2024-02-28T08:06:21;8.00;99.90
18041;DHT22;9145;48.588;9.250;2024-02-28T08:08:49;8.00;99.90
18041;DHT22;9145;48.588;9.250;2024-02-28T08:11:16;8.00;99.90
18041;DHT22;9145;48.588;9.250;2024-02-28T08:13:44;8.10;99.90
18041;DHT22;9145;48.588;9.250;2024-02-28T08:16:11;8.10;99.90
18041;DHT22;9145;48.588;9.250;2024-02-28T08:18:38;8.10;99.90
18041;DHT22;9145;48.588;9.250;2024-02-28T08:21:05;8.20;99.90
18041;DHT22;9145;48.588;9.250;2024-02-28T08:23:32;8.20;99.90
18041;DHT22;9145;48.588;9.250;2024-02-28T08:26:00;8.10;99.90
18041;DHT22;9145;48.588;9.250;2024-02-28T08:28:27;8.10;99.90
18041;DHT22;9145;48.588;9.250;2024-02-28T08:30:53;8.00;99.90
18041;DHT22;9145;48.588;9.250;2024-02-28T08:33:20;8.00;99.90
18041;DHT22;9145;48.588;9.250;2024-02-28T08:35:47;8.00;99.90
18041;DHT22;9145;48.588;9.250;2024-02-28T08:38:15;8.10;99.90
18041;DHT22;9145;48.588;9.250;2024-02-28T08:40:42;8.10;99.90
18041;DHT22;9145;48.588;9.250;2024-02-28T08:43:10;8.10;99.90
18041;DHT22;9145;48.588;9.250;2024-02-28T08:45:37;8.10;99.90
18041;DHT22;9145;48.588;9.250;2024-02-28T08:48:05;8.10;99.90
18041;DHT22;9145;48.588;9.250;2024-02-28T08:50:32;8.10;99.90
18041;DHT22;9145;48.588;9.250;2024-02-28T08:52:59;8.10;99.90
18041;DHT22;9145;48.588;9.250;2024-02-28T08:55:25;8.20;99.90
18041;DHT22;9145;48.588;9.250;2024-02-28T08:57:54;8.20;99.90
18041;DHT22;9145;48.588;9.250;2024-02-28T09:00:22;8.30;99.90
18041;DHT22;9145;48.588;9.250;2024-02-28T09:02:49;8.30;99.90
18041;DHT22;9145;48.588;9.250;2024-02-28T09:05:16;8.30;99.90
18041;DHT22;9145;48.588;9.250;2024-02-28T09:07:44;8.30;99.90
18041;DHT22;9145;48.588;9.250;2024-02-28T09:10:11;8.30;99.90
18041;DHT22;9145;48.588;9.250;2024-02-28T09:12:38;8.30;99.90
18041;DHT22;9145;48.588;9.250;2024-02-28T09:15:06;8.20;99.90
18041;DHT22;9145;48.588;9.250;2024-02-28T09:17:34;8.20;99.90
18041;DHT22;9145;48.588;9.250;2024-02-28T09:20:01;8.20;99.90
18041;DHT22;9145;48.588;9.250;2024-02-28T09:22:31;8.20;99.90
18041;DHT22;9145;48.588;9.250;2024-02-28T09:24:58;8.20;99.90
18041;DHT22;9145;48.588;9.250;2024-02-28T09:27:25;8.20;99.90
18041;DHT22;9145;48.588;9.250;2024-02-28T09:29:52;8.30;99.90
18041;DHT22;9145;48.588;9.250;2024-02-28T09:32:19;8.30;99.90
18041;DHT22;9145;48.588;9.250;2024-02-28T09:34:47;8.30;99.90
18041;DHT22;9145;48.588;9.250;2024-02-28T09:37:14;8.30;99.90
18041;DHT22;9145;48.588;9.250;2024-02-28T09:39:42;8.40;99.90
18041;DHT22;9145;48.588;9.250;2024-02-28T09:42:09;8.30;99.90
18041;DHT22;9145;48.588;9.250;2024-02-28T09:44:37;8.30;99.90
18041;DHT22;9145;48.588;9.250;2024-02-28T09:47:05;8.30;99.90
18041;DHT22;9145;48.588;9.250;2024-02-28T09:49:32;8.30;99.90
18041;DHT22;9145;48.588;9.250;2024-02-28T09:52:04;8.40;99.90
18041;DHT22;9145;48.588;9.250;2024-02-28T09:54:31;8.50;99.90
18041;DHT22;9145;48.588;9.250;2024-02-28T09:56:58;8.50;99.90
18041;DHT22;9145;48.588;9.250;2024-02-28T09:59:26;8.60;99.90
18041;DHT22;9145;48.588;9.250;2024-02-28T10:01:56;8.60;99.90
18041;DHT22;9145;48.588;9.250;2024-02-28T10:04:23;8.70;99.90
18041;DHT22;9145;48.588;9.250;2024-02-28T10:06:52;8.70;99.90
18041;DHT22;9145;48.588;9.250;2024-02-28T10:09:20;8.70;99.90
18041;DHT22;9145;48.588;9.250;2024-02-28T10:11:47;8.80;99.90
18041;DHT22;9145;48.588;9.250;2024-02-28T10:14:17;8.70;99.90
18041;DHT22;9145;48.588;9.250;2024-02-28T10:16:45;8.70;99.90
18041;DHT22;9145;48.588;9.250;2024-02-28T10:19:12;8.70;99.90
18041;DHT22;9145;48.588;9.250;2024-02-28T10:21:39;8.70;99.90
18041;DHT22;9145;48.588;9.250;2024-02-28T10:24:06;8.80;99.90
18041;DHT22;9145;48.588;9.250;2024-02-28T10:26:41;8.80;99.90
18041;DHT22;9145;48.588;9.250;2024-02-28T10:29:08;8.90;99.90
18041;DHT22;9145;48.588;9.250;2024-02-28T10:31:36;8.90;99.90
18041;DHT22;9145;48.588;9.250;2024-02-28T10:34:04;9.00;99.90
18041;DHT22;9145;48.588;9.250;2024-02-28T10:36:32;8.90;99.90
18041;DHT22;9145;48.588;9.250;2024-02-28T10:39:00;9.00;99.90
18041;DHT22;9145;48.588;9.250;2024-02-28T10:41:28;9.00;99.90
18041;DHT22;9145;48.588;9.250;2024-02-28T10:43:56;9.00;99.90
18041;DHT22;9145;48.588;9.250;2024-02-28T10:46:24;9.10;99.90
18041;DHT22;9145;48.588;9.250;2024-02-28T10:48:51;9.10;99.90
18041;DHT22;9145;48.588;9.250;2024-02-28T10:51:23;9.10;99.90
18041;DHT22;9145;48.588;9.250;2024-02-28T10:53:59;9.00;99.90
18041;DHT22;9145;48.588;9.250;2024-02-28T10:56:29;9.00;99.90
18041;DHT22;9145;48.588;9.250;2024-02-28T10:58:59;9.10;99.90
18041;DHT22;9145;48.588;9.250;2024-02-28T11:01:26;9.10;99.90
18041;DHT22;9145;48.588;9.250;2024-02-28T11:03:55;9.20;99.90
18041;DHT22;9145;48.588;9.250;2024-02-28T11:06:22;9.20;99.90
18041;DHT22;9145;48.588;9.250;2024-02-28T11:08:51;9.10;99.90
18041;DHT22;9145;48.588;9.250;2024-02-28T11:11:20;9.10;99.90
18041;DHT22;9145;48.588;9.250;2024-02-28T11:13:54;9.10;99.90
18041;DHT22;9145;48.588;9.250;2024-02-28T11:16:29;9.00;99.90
18041;DHT22;9145;48.588;9.250;2024-02-28T11:18:56;9.00;99.90
18041;DHT22;9145;48.588;9.250;2024-02-28T11:21:24;9.00;99.90
18041;DHT22;9145;48.588;9.250;2024-02-28T11:23:57;9.10;99.90
18041;DHT22;9145;48.588;9.250;2024-02-28T11:26:24;9.20;99.90
18041;DHT22;9145;48.588;9.250;2024-02-28T11:28:53;9.20;99.90
18041;DHT22;9145;48.588;9.250;2024-02-28T11:31:20;9.20;99.90
18041;DHT22;9145;48.588;9.250;2024-02-28T11:33:48;9.20;99.90
18041;DHT22;9145;48.588;9.250;2024-02-28T11:36:16;9.20;99.90
18041;DHT22;9145;48.588;9.250;2024-02-28T11:38:43;9.30;99.90
18041;DHT22;9145;48.588;9.250;2024-02-28T11:41:10;9.20;99.90
18041;DHT22;9145;48.588;9.250;2024-02-28T11:43:37;9.20;99.90
18041;DHT22;9145;48.588;9.250;2024-02-28T11:46:08;9.30;99.90
18041;DHT22;9145;48.588;9.250;2024-02-28T11:48:35;9.20;99.90
18041;DHT22;9145;48.588;9.250;2024-02-28T11:51:04;9.10;99.90
18041;DHT22;9145;48.588;9.250;2024-02-28T11:53:31;9.10;99.90
18041;DHT22;9145;48.588;9.250;2024-02-28T11:55:58;9.00;99.90
18041;DHT22;9145;48.588;9.250;2024-02-28T11:58:25;9.00;99.90
18041;DHT22;9145;48.588;9.250;2024-02-28T12:00:52;9.00;99.90
18041;DHT22;9145;48.588;9.250;2024-02-28T12:03:23;9.00;99.90
18041;DHT22;9145;48.588;9.250;2024-02-28T12:05:51;9.00;99.90
18041;DHT22;9145;48.588;9.250;2024-02-28T12:08:20;9.10;99.90
18041;DHT22;9145;48.588;9.250;2024-02-28T12:10:47;9.10;99.90
18041;DHT22;9145;48.588;9.250;2024-02-28T12:13:17;9.00;99.90
18041;DHT22;9145;48.588;9.250;2024-02-28T12:15:45;9.00;99.90
18041;DHT22;9145;48.588;9.250;2024-02-28T12:18:14;9.00;99.90
18041;DHT22;9145;48.588;9.250;2024-02-28T12:20:41;9.00;99.90
18041;DHT22;9145;48.588;9.250;2024-02-28T12:23:08;9.00;99.90
18041;DHT22;9145;48.588;9.250;2024-02-28T12:25:36;9.00;99.90
18041;DHT22;9145;48.588;9.250;2024-02-28T12:28:04;9.00;99.90
18041;DHT22;9145;48.588;9.250;2024-02-28T12:30:40;9.00;99.90
18041;DHT22;9145;48.588;9.250;2024-02-28T12:33:07;9.00;99.90
18041;DHT22;9145;48.588;9.250;2024-02-28T12:35:33;9.00;99.90
18041;DHT22;9145;48.588;9.250;2024-02-28T12:38:00;9.10;99.90
18041;DHT22;9145;48.588;9.250;2024-02-28T12:40:27;9.00;99.90
18041;DHT22;9145;48.588;9.250;2024-02-28T12:42:55;9.00;99.90
18041;DHT22;9145;48.588;9.250;2024-02-28T12:45:22;9.00;99.90
18041;DHT22;9145;48.588;9.250;2024-02-28T12:47:49;9.00;99.90
18041;DHT22;9145;48.588;9.250;2024-02-28T12:50:16;9.00;99.90
18041;DHT22;9145;48.588;9.250;2024-02-28T12:52:43;8.90;99.90
18041;DHT22;9145;48.588;9.250;2024-02-28T12:55:10;8.90;99.90
18041;DHT22;9145;48.588;9.250;2024-02-28T12:57:40;9.00;99.90
18041;DHT22;9145;48.588;9.250;2024-02-28T13:00:08;9.00;99.90
18041;DHT22;9145;48.588;9.250;2024-02-28T13:02:36;9.10;99.90
18041;DHT22;9145;48.588;9.250;2024-02-28T13:05:04;9.10;99.90
18041;DHT22;9145;48.588;9.250;2024-02-28T13:07:31;9.20;99.90
18041;DHT22;9145;48.588;9.250;2024-02-28T13:09:57;9.20;99.90
18041;DHT22;9145;48.588;9.250;2024-02-28T13:12:24;9.30;99.90
18041;DHT22;9145;48.588;9.250;2024-02-28T13:14:51;9.20;99.90
18041;DHT22;9145;48.588;9.250;2024-02-28T13:17:19;9.30;99.90
18041;DHT22;9145;48.588;9.250;2024-02-28T13:19:46;9.20;99.90
18041;DHT22;9145;48.588;9.250;2024-02-28T13:22:13;9.20;99.90
18041;DHT22;9145;48.588;9.250;2024-02-28T13:24:40;9.20;99.90
18041;DHT22;9145;48.588;9.250;2024-02-28T13:27:07;9.20;99.90
18041;DHT22;9145;48.588;9.250;2024-02-28T13:29:34;9.10;99.90
18041;DHT22;9145;48.588;9.250;2024-02-28T13:32:01;9.20;99.90
18041;DHT22;9145;48.588;9.250;2024-02-28T13:34:30;9.20;99.90
18041;DHT22;9145;48.588;9.250;2024-02-28T13:36:57;9.30;99.90
18041;DHT22;9145;48.588;9.250;2024-02-28T13:39:24;9.30;99.90
18041;DHT22;9145;48.588;9.250;2024-02-28T13:41:52;9.30;99.90
18041;DHT22;9145;48.588;9.250;2024-02-28T13:44:19;9.30;99.90
18041;DHT22;9145;48.588;9.250;2024-02-28T13:46:46;9.20;99.90
18041;DHT22;9145;48.588;9.250;2024-02-28T13:49:13;9.20;99.90
18041;DHT22;9145;48.588;9.250;2024-02-28T13:51:42;9.10;99.90
18041;DHT22;9145;48.588;9.250;2024-02-28T13:54:09;9.00;99.90
18041;DHT22;9145;48.588;9.250;2024-02-28T13:56:35;8.90;99.90
18041;DHT22;9145;48.588;9.250;2024-02-28T13:59:03;8.90;99.90
18041;DHT22;9145;48.588;9.250;2024-02-28T14:01:30;8.80;99.90
18041;DHT22;9145;48.588;9.250;2024-02-28T14:03:56;8.80;99.90
18041;DHT22;9145;48.588;9.250;2024-02-28T14:06:23;8.80;99.90
18041;DHT22;9145;48.588;9.250;2024-02-28T14:08:52;8.80;99.90
18041;DHT22;9145;48.588;9.250;2024-02-28T14:11:19;8.80;99.90
18041;DHT22;9145;48.588;9.250;2024-02-28T14:13:46;8.80;99.90
18041;DHT22;9145;48.588;9.250;2024-02-28T14:16:13;8.90;99.90
18041;DHT22;9145;48.588;9.250;2024-02-28T14:18:39;8.90;99.90
18041;DHT22;9145;48.588;9.250;2024-02-28T14:21:06;8.80;99.90
18041;DHT22;9145;48.588;9.250;2024-02-28T14:23:34;8.80;99.90
18041;DHT22;9145;48.588;9.250;2024-02-28T14:26:02;8.70;99.90
18041;DHT22;9145;48.588;9.250;2024-02-28T14:28:29;8.70;99.90
18041;DHT22;9145;48.588;9.250;2024-02-28T14:30:56;8.70;99.90
18041;DHT22;9145;48.588;9.250;2024-02-28T14:33:23;8.70;99.90
18041;DHT22;9145;48.588;9.250;2024-02-28T14:35:50;8.60;99.90
18041;DHT22;9145;48.588;9.250;2024-02-28T14:38:17;8.60;99.90
18041;DHT22;9145;48.588;9.250;2024-02-28T14:40:44;8.70;99.90
18041;DHT22;9145;48.588;9.250;2024-02-28T14:43:12;8.70;99.90
18041;DHT22;9145;48.588;9.250;2024-02-28T14:45:39;8.70;99.90
18041;DHT22;9145;48.588;9.250;2024-02-28T14:48:06;8.70;99.90
18041;DHT22;9145;48.588;9.250;2024-02-28T14:50:33;8.70;99.90
18041;DHT22;9145;48.588;9.250;2024-02-28T14:53:00;8.60;99.90
18041;DHT22;9145;48.588;9.250;2024-02-28T14:55:27;8.60;99.90
18041;DHT22;9145;48.588;9.250;2024-02-28T14:57:54;8.50;99.90
18041;DHT22;9145;48.588;9.250;2024-02-28T15:00:23;8.50;99.90
18041;DHT22;9145;48.588;9.250;2024-02-28T15:02:49;8.60;99.90
18041;DHT22;9145;48.588;9.250;2024-02-28T15:05:19;8.60;99.90
18041;DHT22;9145;48.588;9.250;2024-02-28T15:07:46;8.60;99.90
18041;DHT22;9145;48.588;9.250;2024-02-28T15:10:14;8.60;99.90
18041;DHT22;9145;48.588;9.250;2024-02-28T15:12:41;8.60;99.90
18041;DHT22;9145;48.588;9.250;2024-02-28T15:15:09;8.60;99.90
18041;DHT22;9145;48.588;9.250;2024-02-28T15:17:37;8.60;99.90
18041;DHT22;9145;48.588;9.250;2024-02-28T15:20:05;8.60;99.90
18041;DHT22;9145;48.588;9.250;2024-02-28T15:22:33;8.70;99.90
18041;DHT22;9145;48.588;9.250;2024-02-28T15:25:00;8.70;99.90
18041;DHT22;9145;48.588;9.250;2024-02-28T15:27:28;8.70;99.90
18041;DHT22;9145;48.588;9.250;2024-02-28T15:29:55;8.80;99.90
18041;DHT22;9145;48.588;9.250;2024-02-28T15:32:22;8.80;99.90
18041;DHT22;9145;48.588;9.250;2024-02-28T15:34:50;8.80;99.90
18041;DHT22;9145;48.588;9.250;2024-02-28T15:37:18;8.80;99.90
18041;DHT22;9145;48.588;9.250;2024-02-28T15:39:45;8.80;99.90
18041;DHT22;9145;48.588;9.250;2024-02-28T15:42:12;8.80;99.90
18041;DHT22;9145;48.588;9.250;2024-02-28T15:44:39;8.80;99.90
18041;DHT22;9145;48.588;9.250;2024-02-28T15:47:07;8.80;99.90
18041;DHT22;9145;48.588;9.250;2024-02-28T15:49:34;8.80;99.90
18041;DHT22;9145;48.588;9.250;2024-02-28T15:52:03;8.90;99.90
18041;DHT22;9145;48.588;9.250;2024-02-28T15:54:30;8.80;99.90
18041;DHT22;9145;48.588;9.250;2024-02-28T15:56:57;8.80;99.90
18041;DHT22;9145;48.588;9.250;2024-02-28T15:59:26;8.80;99.90
18041;DHT22;9145;48.588;9.250;2024-02-28T16:01:53;8.70;99.90
18041;DHT22;9145;48.588;9.250;2024-02-28T16:04:19;8.70;99.90